sensor_id;sensor_type;location;lat;lon;timestamp;P1;durP1;ratioP1;P2;durP2;ratioP2
20154;SDS011;10238;49.556;10.956;2022-08-01T00:00:14;5.25;;;4.85;;
20154;SDS011;10238;49.556;10.956;2022-08-01T00:02:44;6.00;;;5.50;;
20154;SDS011;10238;49.556;10.956;2022-08-01T00:05:13;6.15;;;5.65;;
20154;SDS011;10238;49.556;10.956;2022-08-01T00:07:42;5.53;;;5.07;;
20154;SDS011;10238;49.556;10.956;2022-08-01T00:10:12;6.45;;;5.93;;
20154;SDS011;10238;49.556;10.956;2022-08-01T00:15:13;6.22;;;5.63;;
20154;SDS011;10238;49.556;10.956;2022-08-01T00:17:45;6.10;;;5.60;;
20154;SDS011;10238;49.556;10.956;2022-08-01T00:20:14;6.00;;;5.60;;
20154;SDS011;10238;49.556;10.956;2022-08-01T00:22:43;9.48;;;5.50;;
20154;SDS011;10238;49.556;10.956;2022-08-01T00:25:12;5.78;;;5.20;;
20154;SDS011;10238;49.556;10.956;2022-08-01T00:27:41;5.88;;;5.32;;
20154;SDS011;10238;49.556;10.956;2022-08-01T00:30:10;8.10;;;5.68;;
20154;SDS011;10238;49.556;10.956;2022-08-01T00:32:42;5.97;;;5.47;;
20154;SDS011;10238;49.556;10.956;2022-08-01T00:35:11;6.32;;;5.05;;
20154;SDS011;10238;49.556;10.956;2022-08-01T00:37:40;5.70;;;5.15;;
20154;SDS011;10238;49.556;10.956;2022-08-01T00:40:11;5.57;;;5.15;;
20154;SDS011;10238;49.556;10.956;2022-08-01T00:42:40;5.93;;;5.07;;
20154;SDS011;10238;49.556;10.956;2022-08-01T00:45:10;6.05;;;5.65;;
20154;SDS011;10238;49.556;10.956;2022-08-01T00:47:39;5.68;;;5.38;;
20154;SDS011;10238;49.556;10.956;2022-08-01T00:50:10;7.13;;;6.05;;
20154;SDS011;10238;49.556;10.956;2022-08-01T00:52:39;5.93;;;5.43;;
20154;SDS011;10238;49.556;10.956;2022-08-01T00:55:17;6.85;;;6.32;;
20154;SDS011;10238;49.556;10.956;2022-08-01T00:57:48;7.57;;;6.97;;
20154;SDS011;10238;49.556;10.956;2022-08-01T01:00:31;5.68;;;5.28;;
20154;SDS011;10238;49.556;10.956;2022-08-01T01:03:22;5.60;;;5.10;;
20154;SDS011;10238;49.556;10.956;2022-08-01T01:06:13;6.72;;;6.18;;
20154;SDS011;10238;49.556;10.956;2022-08-01T01:08:58;7.28;;;6.63;;
20154;SDS011;10238;49.556;10.956;2022-08-01T01:11:47;8.13;;;7.55;;
20154;SDS011;10238;49.556;10.956;2022-08-01T01:14:30;6.80;;;6.22;;
20154;SDS011;10238;49.556;10.956;2022-08-01T01:17:14;5.13;;;4.82;;
20154;SDS011;10238;49.556;10.956;2022-08-01T01:20:12;11.43;;;10.32;;
20154;SDS011;10238;49.556;10.956;2022-08-01T01:23:00;6.18;;;5.22;;
20154;SDS011;10238;49.556;10.956;2022-08-01T01:26:17;6.70;;;6.30;;
20154;SDS011;10238;49.556;10.956;2022-08-01T01:29:13;11.65;;;10.82;;
20154;SDS011;10238;49.556;10.956;2022-08-01T01:31:49;6.95;;;6.45;;
20154;SDS011;10238;49.556;10.956;2022-08-01T01:34:25;10.88;;;10.10;;
20154;SDS011;10238;49.556;10.956;2022-08-01T01:37:00;6.32;;;5.93;;
20154;SDS011;10238;49.556;10.956;2022-08-01T01:39:32;9.73;;;8.48;;
20154;SDS011;10238;49.556;10.956;2022-08-01T01:44:36;9.27;;;5.38;;
20154;SDS011;10238;49.556;10.956;2022-08-01T01:47:07;6.22;;;5.80;;
20154;SDS011;10238;49.556;10.956;2022-08-01T01:49:36;8.25;;;5.53;;
20154;SDS011;10238;49.556;10.956;2022-08-01T01:52:08;6.82;;;6.18;;
20154;SDS011;10238;49.556;10.956;2022-08-01T01:54:42;7.13;;;6.63;;
20154;SDS011;10238;49.556;10.956;2022-08-01T01:57:17;6.32;;;5.10;;
20154;SDS011;10238;49.556;10.956;2022-08-01T01:59:49;6.43;;;5.78;;
20154;SDS011;10238;49.556;10.956;2022-08-01T02:02:21;5.50;;;4.05;;
20154;SDS011;10238;49.556;10.956;2022-08-01T02:04:52;8.82;;;8.07;;
20154;SDS011;10238;49.556;10.956;2022-08-01T02:07:28;6.18;;;5.78;;
20154;SDS011;10238;49.556;10.956;2022-08-01T02:10:00;4.20;;;3.90;;
20154;SDS011;10238;49.556;10.956;2022-08-01T02:12:34;5.45;;;4.97;;
20154;SDS011;10238;49.556;10.956;2022-08-01T02:15:08;3.72;;;3.42;;
20154;SDS011;10238;49.556;10.956;2022-08-01T02:17:42;5.15;;;4.78;;
20154;SDS011;10238;49.556;10.956;2022-08-01T02:20:17;4.65;;;4.30;;
20154;SDS011;10238;49.556;10.956;2022-08-01T02:22:47;9.90;;;9.30;;
20154;SDS011;10238;49.556;10.956;2022-08-01T02:25:20;5.55;;;4.05;;
20154;SDS011;10238;49.556;10.956;2022-08-01T02:27:54;4.65;;;4.18;;
20154;SDS011;10238;49.556;10.956;2022-08-01T02:30:34;7.45;;;5.97;;
20154;SDS011;10238;49.556;10.956;2022-08-01T02:33:07;6.55;;;6.10;;
20154;SDS011;10238;49.556;10.956;2022-08-01T02:35:46;4.30;;;4.00;;
20154;SDS011;10238;49.556;10.956;2022-08-01T02:38:40;6.13;;;5.40;;
20154;SDS011;10238;49.556;10.956;2022-08-01T02:41:16;5.00;;;4.57;;
20154;SDS011;10238;49.556;10.956;2022-08-01T02:43:52;5.60;;;5.10;;
20154;SDS011;10238;49.556;10.956;2022-08-01T02:46:31;9.75;;;8.98;;
20154;SDS011;10238;49.556;10.956;2022-08-01T02:49:05;9.15;;;8.15;;
20154;SDS011;10238;49.556;10.956;2022-08-01T02:51:38;6.18;;;4.88;;
20154;SDS011;10238;49.556;10.956;2022-08-01T02:54:09;9.20;;;8.55;;
20154;SDS011;10238;49.556;10.956;2022-08-01T02:56:40;7.78;;;7.20;;
20154;SDS011;10238;49.556;10.956;2022-08-01T02:59:12;8.65;;;7.95;;
20154;SDS011;10238;49.556;10.956;2022-08-01T03:01:49;8.82;;;8.18;;
20154;SDS011;10238;49.556;10.956;2022-08-01T03:04:21;6.70;;;6.10;;
20154;SDS011;10238;49.556;10.956;2022-08-01T03:06:52;9.93;;;9.02;;
20154;SDS011;10238;49.556;10.956;2022-08-01T03:09:25;8.27;;;7.47;;
20154;SDS011;10238;49.556;10.956;2022-08-01T03:12:00;8.57;;;7.97;;
20154;SDS011;10238;49.556;10.956;2022-08-01T03:14:35;9.65;;;8.13;;
20154;SDS011;10238;49.556;10.956;2022-08-01T03:17:09;9.23;;;8.63;;
20154;SDS011;10238;49.556;10.956;2022-08-01T03:19:40;8.65;;;8.00;;
20154;SDS011;10238;49.556;10.956;2022-08-01T03:22:14;8.98;;;8.38;;
20154;SDS011;10238;49.556;10.956;2022-08-01T03:24:45;8.32;;;7.82;;
20154;SDS011;10238;49.556;10.956;2022-08-01T03:28:08;8.43;;;7.85;;
20154;SDS011;10238;49.556;10.956;2022-08-01T03:30:41;8.25;;;7.65;;
20154;SDS011;10238;49.556;10.956;2022-08-01T03:33:13;7.65;;;7.00;;
20154;SDS011;10238;49.556;10.956;2022-08-01T03:35:44;7.05;;;6.57;;
20154;SDS011;10238;49.556;10.956;2022-08-01T03:38:18;7.30;;;6.78;;
20154;SDS011;10238;49.556;10.956;2022-08-01T03:40:52;8.85;;;7.60;;
20154;SDS011;10238;49.556;10.956;2022-08-01T03:43:28;7.60;;;6.95;;
20154;SDS011;10238;49.556;10.956;2022-08-01T03:46:06;8.55;;;8.05;;
20154;SDS011;10238;49.556;10.956;2022-08-01T03:48:43;7.00;;;6.43;;
20154;SDS011;10238;49.556;10.956;2022-08-01T03:51:20;5.93;;;5.38;;
20154;SDS011;10238;49.556;10.956;2022-08-01T03:53:51;6.50;;;6.00;;
20154;SDS011;10238;49.556;10.956;2022-08-01T03:56:23;5.70;;;5.30;;
20154;SDS011;10238;49.556;10.956;2022-08-01T03:58:54;5.35;;;4.85;;
20154;SDS011;10238;49.556;10.956;2022-08-01T04:01:24;6.13;;;4.85;;
20154;SDS011;10238;49.556;10.956;2022-08-01T04:03:55;4.65;;;4.25;;
20154;SDS011;10238;49.556;10.956;2022-08-01T04:06:26;4.20;;;3.80;;
20154;SDS011;10238;49.556;10.956;2022-08-01T04:08:55;8.00;;;3.92;;
20154;SDS011;10238;49.556;10.956;2022-08-01T04:11:25;3.90;;;3.50;;
20154;SDS011;10238;49.556;10.956;2022-08-01T04:13:56;5.10;;;3.75;;
20154;SDS011;10238;49.556;10.956;2022-08-01T04:16:25;4.35;;;4.05;;
20154;SDS011;10238;49.556;10.956;2022-08-01T04:18:55;4.07;;;3.78;;
20154;SDS011;10238;49.556;10.956;2022-08-01T04:21:25;4.65;;;4.20;;
20154;SDS011;10238;49.556;10.956;2022-08-01T04:23:59;4.85;;;4.45;;
20154;SDS011;10238;49.556;10.956;2022-08-01T04:26:34;4.18;;;3.78;;
20154;SDS011;10238;49.556;10.956;2022-08-01T04:29:06;4.68;;;3.53;;
20154;SDS011;10238;49.556;10.956;2022-08-01T04:31:38;3.70;;;3.47;;
20154;SDS011;10238;49.556;10.956;2022-08-01T04:34:13;5.43;;;4.28;;
20154;SDS011;10238;49.556;10.956;2022-08-01T04:36:47;3.80;;;3.50;;
20154;SDS011;10238;49.556;10.956;2022-08-01T04:39:20;3.97;;;3.67;;
20154;SDS011;10238;49.556;10.956;2022-08-01T04:41:54;4.65;;;4.18;;
20154;SDS011;10238;49.556;10.956;2022-08-01T04:44:26;3.40;;;3.10;;
20154;SDS011;10238;49.556;10.956;2022-08-01T04:46:59;5.30;;;3.47;;
20154;SDS011;10238;49.556;10.956;2022-08-01T04:49:32;4.03;;;3.63;;
20154;SDS011;10238;49.556;10.956;2022-08-01T04:52:15;3.63;;;3.25;;
20154;SDS011;10238;49.556;10.956;2022-08-01T04:54:50;3.92;;;3.05;;
20154;SDS011;10238;49.556;10.956;2022-08-01T04:57:19;6.57;;;3.78;;
20154;SDS011;10238;49.556;10.956;2022-08-01T04:59:48;4.38;;;3.53;;
20154;SDS011;10238;49.556;10.956;2022-08-01T05:02:23;4.13;;;3.67;;
20154;SDS011;10238;49.556;10.956;2022-08-01T05:04:56;4.57;;;4.03;;
20154;SDS011;10238;49.556;10.956;2022-08-01T05:07:25;3.88;;;3.30;;
20154;SDS011;10238;49.556;10.956;2022-08-01T05:09:54;5.45;;;3.55;;
20154;SDS011;10238;49.556;10.956;2022-08-01T05:12:23;4.18;;;3.53;;
20154;SDS011;10238;49.556;10.956;2022-08-01T05:14:52;3.60;;;3.08;;
20154;SDS011;10238;49.556;10.956;2022-08-01T05:17:21;4.45;;;2.90;;
20154;SDS011;10238;49.556;10.956;2022-08-01T05:19:50;3.45;;;3.15;;
20154;SDS011;10238;49.556;10.956;2022-08-01T05:22:20;5.35;;;3.25;;
20154;SDS011;10238;49.556;10.956;2022-08-01T05:24:52;5.57;;;3.10;;
20154;SDS011;10238;49.556;10.956;2022-08-01T05:27:21;5.20;;;3.10;;
20154;SDS011;10238;49.556;10.956;2022-08-01T05:29:52;3.43;;;2.80;;
20154;SDS011;10238;49.556;10.956;2022-08-01T05:32:21;4.10;;;3.22;;
20154;SDS011;10238;49.556;10.956;2022-08-01T05:34:52;4.15;;;3.10;;
20154;SDS011;10238;49.556;10.956;2022-08-01T05:37:23;4.82;;;3.50;;
20154;SDS011;10238;49.556;10.956;2022-08-01T05:39:52;4.78;;;3.47;;
20154;SDS011;10238;49.556;10.956;2022-08-01T05:42:21;3.80;;;3.58;;
20154;SDS011;10238;49.556;10.956;2022-08-01T05:44:50;5.80;;;5.40;;
20154;SDS011;10238;49.556;10.956;2022-08-01T05:47:19;5.07;;;4.78;;
20154;SDS011;10238;49.556;10.956;2022-08-01T05:49:47;6.65;;;6.15;;
20154;SDS011;10238;49.556;10.956;2022-08-01T05:52:16;6.10;;;5.70;;
20154;SDS011;10238;49.556;10.956;2022-08-01T05:54:47;6.60;;;5.85;;
20154;SDS011;10238;49.556;10.956;2022-08-01T05:57:16;7.25;;;5.10;;
20154;SDS011;10238;49.556;10.956;2022-08-01T05:59:46;3.53;;;3.33;;
20154;SDS011;10238;49.556;10.956;2022-08-01T06:02:15;4.10;;;3.00;;
20154;SDS011;10238;49.556;10.956;2022-08-01T06:04:44;3.30;;;3.03;;
20154;SDS011;10238;49.556;10.956;2022-08-01T06:07:13;4.13;;;3.22;;
20154;SDS011;10238;49.556;10.956;2022-08-01T06:09:42;3.95;;;3.58;;
20154;SDS011;10238;49.556;10.956;2022-08-01T06:12:12;4.88;;;3.97;;
20154;SDS011;10238;49.556;10.956;2022-08-01T06:14:41;3.85;;;3.55;;
20154;SDS011;10238;49.556;10.956;2022-08-01T06:17:10;3.90;;;3.45;;
20154;SDS011;10238;49.556;10.956;2022-08-01T06:19:39;4.35;;;3.63;;
20154;SDS011;10238;49.556;10.956;2022-08-01T06:22:08;4.13;;;3.80;;
20154;SDS011;10238;49.556;10.956;2022-08-01T06:24:37;4.20;;;3.90;;
20154;SDS011;10238;49.556;10.956;2022-08-01T06:27:07;4.60;;;4.07;;
20154;SDS011;10238;49.556;10.956;2022-08-01T06:29:49;5.78;;;5.35;;
20154;SDS011;10238;49.556;10.956;2022-08-01T06:32:20;6.57;;;6.07;;
20154;SDS011;10238;49.556;10.956;2022-08-01T06:34:53;7.95;;;7.30;;
20154;SDS011;10238;49.556;10.956;2022-08-01T06:37:23;7.50;;;7.00;;
20154;SDS011;10238;49.556;10.956;2022-08-01T06:39:56;10.27;;;9.68;;
20154;SDS011;10238;49.556;10.956;2022-08-01T06:44:59;9.95;;;9.20;;
20154;SDS011;10238;49.556;10.956;2022-08-01T06:47:28;7.72;;;7.15;;
20154;SDS011;10238;49.556;10.956;2022-08-01T06:49:57;4.88;;;4.47;;
20154;SDS011;10238;49.556;10.956;2022-08-01T06:52:26;6.28;;;5.88;;
20154;SDS011;10238;49.556;10.956;2022-08-01T06:54:55;2.80;;;2.58;;
20154;SDS011;10238;49.556;10.956;2022-08-01T06:57:24;4.05;;;3.85;;
20154;SDS011;10238;49.556;10.956;2022-08-01T06:59:54;3.35;;;2.92;;
20154;SDS011;10238;49.556;10.956;2022-08-01T07:02:25;5.22;;;4.10;;
20154;SDS011;10238;49.556;10.956;2022-08-01T07:04:53;4.28;;;3.97;;
20154;SDS011;10238;49.556;10.956;2022-08-01T07:07:26;7.45;;;6.80;;
20154;SDS011;10238;49.556;10.956;2022-08-01T07:09:55;8.40;;;7.90;;
20154;SDS011;10238;49.556;10.956;2022-08-01T07:12:24;9.50;;;8.95;;
20154;SDS011;10238;49.556;10.956;2022-08-01T07:14:53;11.05;;;10.35;;
20154;SDS011;10238;49.556;10.956;2022-08-01T07:17:24;12.30;;;11.63;;
20154;SDS011;10238;49.556;10.956;2022-08-01T07:19:53;11.98;;;11.27;;
20154;SDS011;10238;49.556;10.956;2022-08-01T07:22:23;12.73;;;12.10;;
20154;SDS011;10238;49.556;10.956;2022-08-01T07:24:52;8.82;;;8.32;;
20154;SDS011;10238;49.556;10.956;2022-08-01T07:27:21;7.68;;;7.07;;
20154;SDS011;10238;49.556;10.956;2022-08-01T07:29:52;5.43;;;5.03;;
20154;SDS011;10238;49.556;10.956;2022-08-01T07:32:21;4.57;;;4.18;;
20154;SDS011;10238;49.556;10.956;2022-08-01T07:34:52;3.47;;;3.17;;
20154;SDS011;10238;49.556;10.956;2022-08-01T07:37:21;3.85;;;3.55;;
20154;SDS011;10238;49.556;10.956;2022-08-01T07:40:10;4.60;;;3.10;;
20154;SDS011;10238;49.556;10.956;2022-08-01T07:42:40;3.67;;;2.83;;
20154;SDS011;10238;49.556;10.956;2022-08-01T07:45:10;3.28;;;3.08;;
20154;SDS011;10238;49.556;10.956;2022-08-01T07:47:41;4.03;;;3.63;;
20154;SDS011;10238;49.556;10.956;2022-08-01T07:50:11;3.50;;;3.20;;
20154;SDS011;10238;49.556;10.956;2022-08-01T07:52:40;3.97;;;3.17;;
20154;SDS011;10238;49.556;10.956;2022-08-01T07:55:11;4.05;;;3.00;;
20154;SDS011;10238;49.556;10.956;2022-08-01T07:57:42;2.97;;;2.78;;
20154;SDS011;10238;49.556;10.956;2022-08-01T08:00:12;3.67;;;3.38;;
20154;SDS011;10238;49.556;10.956;2022-08-01T08:02:43;2.72;;;2.53;;
20154;SDS011;10238;49.556;10.956;2022-08-01T08:05:12;4.50;;;2.78;;
20154;SDS011;10238;49.556;10.956;2022-08-01T08:08:01;4.18;;;3.90;;
20154;SDS011;10238;49.556;10.956;2022-08-01T08:10:30;3.58;;;3.33;;
20154;SDS011;10238;49.556;10.956;2022-08-01T08:12:59;2.80;;;2.60;;
20154;SDS011;10238;49.556;10.956;2022-08-01T08:15:29;2.78;;;2.58;;
20154;SDS011;10238;49.556;10.956;2022-08-01T08:18:01;1.90;;;1.80;;
20154;SDS011;10238;49.556;10.956;2022-08-01T08:23:00;2.55;;;2.03;;
20154;SDS011;10238;49.556;10.956;2022-08-01T08:26:09;4.38;;;3.05;;
20154;SDS011;10238;49.556;10.956;2022-08-01T08:28:39;2.85;;;2.65;;
20154;SDS011;10238;49.556;10.956;2022-08-01T08:31:08;2.60;;;2.40;;
20154;SDS011;10238;49.556;10.956;2022-08-01T08:33:58;2.15;;;2.05;;
20154;SDS011;10238;49.556;10.956;2022-08-01T08:36:28;2.10;;;2.00;;
20154;SDS011;10238;49.556;10.956;2022-08-01T08:38:57;2.83;;;2.20;;
20154;SDS011;10238;49.556;10.956;2022-08-01T08:41:28;2.15;;;2.05;;
20154;SDS011;10238;49.556;10.956;2022-08-01T08:44:05;8.07;;;2.30;;
20154;SDS011;10238;49.556;10.956;2022-08-01T08:46:39;2.65;;;2.45;;
20154;SDS011;10238;49.556;10.956;2022-08-01T08:49:15;2.63;;;2.53;;
20154;SDS011;10238;49.556;10.956;2022-08-01T08:51:48;2.92;;;2.78;;
20154;SDS011;10238;49.556;10.956;2022-08-01T08:54:21;4.57;;;2.28;;
20154;SDS011;10238;49.556;10.956;2022-08-01T08:56:57;2.38;;;1.90;;
20154;SDS011;10238;49.556;10.956;2022-08-01T08:59:28;2.83;;;2.00;;
20154;SDS011;10238;49.556;10.956;2022-08-01T09:01:57;2.05;;;1.60;;
20154;SDS011;10238;49.556;10.956;2022-08-01T09:04:28;1.60;;;1.50;;
20154;SDS011;10238;49.556;10.956;2022-08-01T09:06:58;1.75;;;1.30;;
20154;SDS011;10238;49.556;10.956;2022-08-01T09:09:27;1.65;;;1.50;;
20154;SDS011;10238;49.556;10.956;2022-08-01T09:11:58;1.85;;;1.35;;
20154;SDS011;10238;49.556;10.956;2022-08-01T09:14:27;1.48;;;1.38;;
20154;SDS011;10238;49.556;10.956;2022-08-01T09:16:58;4.40;;;1.33;;
20154;SDS011;10238;49.556;10.956;2022-08-01T09:19:38;1.38;;;1.33;;
20154;SDS011;10238;49.556;10.956;2022-08-01T09:22:11;3.03;;;1.30;;
20154;SDS011;10238;49.556;10.956;2022-08-01T09:24:56;1.55;;;1.33;;
20154;SDS011;10238;49.556;10.956;2022-08-01T09:27:28;1.58;;;1.27;;
20154;SDS011;10238;49.556;10.956;2022-08-01T09:30:07;2.42;;;1.23;;
20154;SDS011;10238;49.556;10.956;2022-08-01T09:32:55;2.85;;;1.20;;
20154;SDS011;10238;49.556;10.956;2022-08-01T09:35:29;1.50;;;1.40;;
20154;SDS011;10238;49.556;10.956;2022-08-01T09:38:13;1.95;;;1.40;;
20154;SDS011;10238;49.556;10.956;2022-08-01T09:40:45;3.08;;;1.38;;
20154;SDS011;10238;49.556;10.956;2022-08-01T09:43:17;2.75;;;1.30;;
20154;SDS011;10238;49.556;10.956;2022-08-01T09:45:47;1.83;;;1.20;;
20154;SDS011;10238;49.556;10.956;2022-08-01T09:48:19;1.45;;;1.35;;
20154;SDS011;10238;49.556;10.956;2022-08-01T09:50:57;1.60;;;1.50;;
20154;SDS011;10238;49.556;10.956;2022-08-01T09:53:42;2.38;;;1.50;;
20154;SDS011;10238;49.556;10.956;2022-08-01T09:56:19;2.08;;;1.40;;
20154;SDS011;10238;49.556;10.956;2022-08-01T09:58:53;1.30;;;1.20;;
20154;SDS011;10238;49.556;10.956;2022-08-01T10:01:29;2.95;;;1.25;;
20154;SDS011;10238;49.556;10.956;2022-08-01T10:04:12;1.40;;;1.30;;
20154;SDS011;10238;49.556;10.956;2022-08-01T10:06:46;1.75;;;1.30;;
20154;SDS011;10238;49.556;10.956;2022-08-01T10:09:26;1.65;;;1.20;;
20154;SDS011;10238;49.556;10.956;2022-08-01T10:12:07;1.42;;;1.33;;
20154;SDS011;10238;49.556;10.956;2022-08-01T10:14:42;1.63;;;1.42;;
20154;SDS011;10238;49.556;10.956;2022-08-01T10:17:17;1.58;;;1.48;;
20154;SDS011;10238;49.556;10.956;2022-08-01T10:19:48;2.22;;;1.17;;
20154;SDS011;10238;49.556;10.956;2022-08-01T10:22:25;2.17;;;1.40;;
20154;SDS011;10238;49.556;10.956;2022-08-01T10:25:02;3.20;;;1.38;;
20154;SDS011;10238;49.556;10.956;2022-08-01T10:27:34;3.05;;;1.50;;
20154;SDS011;10238;49.556;10.956;2022-08-01T10:30:08;1.63;;;1.50;;
20154;SDS011;10238;49.556;10.956;2022-08-01T10:32:49;1.92;;;1.48;;
20154;SDS011;10238;49.556;10.956;2022-08-01T10:35:21;1.52;;;1.42;;
20154;SDS011;10238;49.556;10.956;2022-08-01T10:38:12;1.50;;;1.40;;
20154;SDS011;10238;49.556;10.956;2022-08-01T10:40:43;1.92;;;1.40;;
20154;SDS011;10238;49.556;10.956;2022-08-01T10:43:13;1.20;;;1.20;;
20154;SDS011;10238;49.556;10.956;2022-08-01T10:45:48;1.30;;;1.13;;
20154;SDS011;10238;49.556;10.956;2022-08-01T10:48:19;1.70;;;1.60;;
20154;SDS011;10238;49.556;10.956;2022-08-01T10:50:57;2.08;;;1.30;;
20154;SDS011;10238;49.556;10.956;2022-08-01T10:53:47;4.07;;;1.52;;
20154;SDS011;10238;49.556;10.956;2022-08-01T10:56:20;3.42;;;3.22;;
20154;SDS011;10238;49.556;10.956;2022-08-01T10:59:00;3.00;;;2.90;;
20154;SDS011;10238;49.556;10.956;2022-08-01T11:01:37;2.92;;;2.72;;
20154;SDS011;10238;49.556;10.956;2022-08-01T11:04:11;2.50;;;2.33;;
20154;SDS011;10238;49.556;10.956;2022-08-01T11:09:44;2.90;;;2.70;;
20154;SDS011;10238;49.556;10.956;2022-08-01T11:12:18;4.85;;;4.55;;
20154;SDS011;10238;49.556;10.956;2022-08-01T11:18:01;6.93;;;6.63;;
20154;SDS011;10238;49.556;10.956;2022-08-01T11:20:57;4.43;;;4.22;;
20154;SDS011;10238;49.556;10.956;2022-08-01T11:23:48;2.22;;;2.13;;
20154;SDS011;10238;49.556;10.956;2022-08-01T11:26:22;3.88;;;2.53;;
20154;SDS011;10238;49.556;10.956;2022-08-01T11:31:54;2.53;;;2.15;;
20154;SDS011;10238;49.556;10.956;2022-08-01T11:34:55;3.53;;;2.30;;
20154;SDS011;10238;49.556;10.956;2022-08-01T11:37:28;2.63;;;2.50;;
20154;SDS011;10238;49.556;10.956;2022-08-01T11:42:45;3.22;;;3.03;;
20154;SDS011;10238;49.556;10.956;2022-08-01T11:45:14;2.72;;;2.63;;
20154;SDS011;10238;49.556;10.956;2022-08-01T11:47:45;2.97;;;2.78;;
20154;SDS011;10238;49.556;10.956;2022-08-01T11:50:35;3.10;;;3.00;;
20154;SDS011;10238;49.556;10.956;2022-08-01T11:53:05;3.53;;;3.22;;
20154;SDS011;10238;49.556;10.956;2022-08-01T11:55:38;3.40;;;3.20;;
20154;SDS011;10238;49.556;10.956;2022-08-01T11:58:21;3.45;;;3.15;;
20154;SDS011;10238;49.556;10.956;2022-08-01T12:00:57;3.33;;;2.75;;
20154;SDS011;10238;49.556;10.956;2022-08-01T12:03:27;2.05;;;1.80;;
20154;SDS011;10238;49.556;10.956;2022-08-01T12:06:00;1.80;;;1.70;;
20154;SDS011;10238;49.556;10.956;2022-08-01T12:08:31;6.15;;;2.10;;
20154;SDS011;10238;49.556;10.956;2022-08-01T12:11:04;2.53;;;1.73;;
20154;SDS011;10238;49.556;10.956;2022-08-01T12:13:41;3.47;;;1.83;;
20154;SDS011;10238;49.556;10.956;2022-08-01T12:16:12;5.47;;;1.60;;
20154;SDS011;10238;49.556;10.956;2022-08-01T12:18:41;2.85;;;1.80;;
20154;SDS011;10238;49.556;10.956;2022-08-01T12:21:11;3.55;;;1.60;;
20154;SDS011;10238;49.556;10.956;2022-08-01T12:23:41;2.05;;;1.75;;
20154;SDS011;10238;49.556;10.956;2022-08-01T12:26:10;1.80;;;1.70;;
20154;SDS011;10238;49.556;10.956;2022-08-01T12:28:59;2.10;;;1.83;;
20154;SDS011;10238;49.556;10.956;2022-08-01T12:31:31;1.75;;;1.65;;
20154;SDS011;10238;49.556;10.956;2022-08-01T12:36:58;2.45;;;2.35;;
20154;SDS011;10238;49.556;10.956;2022-08-01T12:39:33;3.85;;;3.65;;
20154;SDS011;10238;49.556;10.956;2022-08-01T12:42:06;4.40;;;4.10;;
20154;SDS011;10238;49.556;10.956;2022-08-01T12:44:39;4.28;;;3.17;;
20154;SDS011;10238;49.556;10.956;2022-08-01T12:47:12;3.75;;;2.95;;
20154;SDS011;10238;49.556;10.956;2022-08-01T12:49:42;4.28;;;4.05;;
20154;SDS011;10238;49.556;10.956;2022-08-01T12:52:13;6.47;;;5.97;;
20154;SDS011;10238;49.556;10.956;2022-08-01T12:55:05;6.25;;;5.85;;
20154;SDS011;10238;49.556;10.956;2022-08-01T12:57:38;6.68;;;6.18;;
20154;SDS011;10238;49.556;10.956;2022-08-01T13:00:14;5.18;;;4.78;;
20154;SDS011;10238;49.556;10.956;2022-08-01T13:02:47;5.00;;;4.80;;
20154;SDS011;10238;49.556;10.956;2022-08-01T13:05:27;6.28;;;5.95;;
20154;SDS011;10238;49.556;10.956;2022-08-01T13:07:56;6.90;;;6.40;;
20154;SDS011;10238;49.556;10.956;2022-08-01T13:10:30;6.70;;;6.22;;
20154;SDS011;10238;49.556;10.956;2022-08-01T13:12:59;6.25;;;5.95;;
20154;SDS011;10238;49.556;10.956;2022-08-01T13:15:30;4.93;;;4.72;;
20154;SDS011;10238;49.556;10.956;2022-08-01T13:18:23;6.38;;;6.07;;
20154;SDS011;10238;49.556;10.956;2022-08-01T13:21:08;5.93;;;5.50;;
20154;SDS011;10238;49.556;10.956;2022-08-01T13:23:40;6.15;;;5.85;;
20154;SDS011;10238;49.556;10.956;2022-08-01T13:26:40;4.95;;;4.72;;
20154;SDS011;10238;49.556;10.956;2022-08-01T13:29:11;4.53;;;2.42;;
20154;SDS011;10238;49.556;10.956;2022-08-01T13:31:44;2.72;;;2.63;;
20154;SDS011;10238;49.556;10.956;2022-08-01T13:34:14;2.20;;;2.10;;
20154;SDS011;10238;49.556;10.956;2022-08-01T13:36:44;6.70;;;6.40;;
20154;SDS011;10238;49.556;10.956;2022-08-01T13:39:15;4.53;;;4.32;;
20154;SDS011;10238;49.556;10.956;2022-08-01T13:42:02;2.53;;;2.40;;
20154;SDS011;10238;49.556;10.956;2022-08-01T13:44:32;3.35;;;3.05;;
20154;SDS011;10238;49.556;10.956;2022-08-01T13:47:02;6.13;;;5.93;;
20154;SDS011;10238;49.556;10.956;2022-08-01T13:49:41;5.05;;;4.85;;
20154;SDS011;10238;49.556;10.956;2022-08-01T13:52:10;2.58;;;2.38;;
20154;SDS011;10238;49.556;10.956;2022-08-01T13:54:39;1.75;;;1.65;;
20154;SDS011;10238;49.556;10.956;2022-08-01T13:57:08;1.70;;;1.60;;
20154;SDS011;10238;49.556;10.956;2022-08-01T13:59:37;2.08;;;1.48;;
20154;SDS011;10238;49.556;10.956;2022-08-01T14:02:08;1.20;;;1.20;;
20154;SDS011;10238;49.556;10.956;2022-08-01T14:04:36;1.10;;;1.10;;
20154;SDS011;10238;49.556;10.956;2022-08-01T14:07:05;1.13;;;1.10;;
20154;SDS011;10238;49.556;10.956;2022-08-01T14:09:40;1.33;;;1.23;;
20154;SDS011;10238;49.556;10.956;2022-08-01T14:12:29;1.30;;;1.20;;
20154;SDS011;10238;49.556;10.956;2022-08-01T14:14:59;1.10;;;1.05;;
20154;SDS011;10238;49.556;10.956;2022-08-01T14:17:30;2.05;;;1.33;;
20154;SDS011;10238;49.556;10.956;2022-08-01T14:20:04;1.35;;;1.25;;
20154;SDS011;10238;49.556;10.956;2022-08-01T14:22:33;1.00;;;1.00;;
20154;SDS011;10238;49.556;10.956;2022-08-01T14:25:03;1.45;;;1.40;;
20154;SDS011;10238;49.556;10.956;2022-08-01T14:27:33;1.65;;;1.30;;
20154;SDS011;10238;49.556;10.956;2022-08-01T14:30:03;1.40;;;1.30;;
20154;SDS011;10238;49.556;10.956;2022-08-01T14:32:35;1.40;;;1.30;;
20154;SDS011;10238;49.556;10.956;2022-08-01T14:35:05;2.92;;;1.13;;
20154;SDS011;10238;49.556;10.956;2022-08-01T14:37:35;1.33;;;1.23;;
20154;SDS011;10238;49.556;10.956;2022-08-01T14:40:05;1.13;;;1.13;;
20154;SDS011;10238;49.556;10.956;2022-08-01T14:42:37;2.55;;;1.20;;
20154;SDS011;10238;49.556;10.956;2022-08-01T14:45:07;1.65;;;1.40;;
20154;SDS011;10238;49.556;10.956;2022-08-01T14:47:39;2.25;;;1.00;;
20154;SDS011;10238;49.556;10.956;2022-08-01T14:50:11;2.78;;;1.40;;
20154;SDS011;10238;49.556;10.956;2022-08-01T14:52:43;1.60;;;1.40;;
20154;SDS011;10238;49.556;10.956;2022-08-01T14:55:12;1.63;;;1.40;;
20154;SDS011;10238;49.556;10.956;2022-08-01T14:57:41;1.17;;;1.17;;
20154;SDS011;10238;49.556;10.956;2022-08-01T15:00:10;2.28;;;1.30;;
20154;SDS011;10238;49.556;10.956;2022-08-01T15:02:44;1.27;;;1.17;;
20154;SDS011;10238;49.556;10.956;2022-08-01T15:05:17;1.52;;;1.20;;
20154;SDS011;10238;49.556;10.956;2022-08-01T15:07:49;2.47;;;2.10;;
20154;SDS011;10238;49.556;10.956;2022-08-01T15:10:19;4.55;;;4.18;;
20154;SDS011;10238;49.556;10.956;2022-08-01T15:12:49;3.83;;;3.58;;
20154;SDS011;10238;49.556;10.956;2022-08-01T15:15:18;4.50;;;4.20;;
20154;SDS011;10238;49.556;10.956;2022-08-01T15:17:49;2.30;;;2.20;;
20154;SDS011;10238;49.556;10.956;2022-08-01T15:20:19;1.92;;;1.77;;
20154;SDS011;10238;49.556;10.956;2022-08-01T15:22:48;2.10;;;2.00;;
20154;SDS011;10238;49.556;10.956;2022-08-01T15:25:17;2.20;;;2.00;;
20154;SDS011;10238;49.556;10.956;2022-08-01T15:27:47;2.40;;;2.30;;
20154;SDS011;10238;49.556;10.956;2022-08-01T15:30:16;2.33;;;2.13;;
20154;SDS011;10238;49.556;10.956;2022-08-01T15:32:54;2.70;;;2.50;;
20154;SDS011;10238;49.556;10.956;2022-08-01T15:35:23;4.15;;;3.85;;